sensor_id;sensor_type;location;lat;lon;timestamp;P1;durP1;ratioP1;P2;durP2;ratioP2
43327;SDS011;28923;45.412;10.852;2023-02-22T00:00:37;26.77;;;17.27;;
43327;SDS011;28923;45.412;10.852;2023-02-22T00:03:10;24.45;;;17.50;;
43327;SDS011;28923;45.412;10.852;2023-02-22T00:05:36;26.73;;;18.42;;
43327;SDS011;28923;45.412;10.852;2023-02-22T00:08:03;24.23;;;17.95;;
43327;SDS011;28923;45.412;10.852;2023-02-22T00:10:29;24.42;;;17.48;;
43327;SDS011;28923;45.412;10.852;2023-02-22T00:12:54;26.60;;;17.02;;
43327;SDS011;28923;45.412;10.852;2023-02-22T00:15:21;26.75;;;17.02;;
43327;SDS011;28923;45.412;10.852;2023-02-22T00:17:47;26.80;;;17.55;;
43327;SDS011;28923;45.412;10.852;2023-02-22T00:20:13;23.23;;;16.50;;
43327;SDS011;28923;45.412;10.852;2023-02-22T00:22:43;24.17;;;17.33;;
43327;SDS011;28923;45.412;10.852;2023-02-22T00:25:11;25.65;;;17.63;;
43327;SDS011;28923;45.412;10.852;2023-02-22T00:27:36;25.35;;;17.40;;
43327;SDS011;28923;45.412;10.852;2023-02-22T00:30:03;26.27;;;17.48;;
43327;SDS011;28923;45.412;10.852;2023-02-22T00:32:30;25.23;;;17.20;;
43327;SDS011;28923;45.412;10.852;2023-02-22T00:34:55;27.17;;;17.50;;
43327;SDS011;28923;45.412;10.852;2023-02-22T00:37:23;26.60;;;17.50;;
43327;SDS011;28923;45.412;10.852;2023-02-22T00:39:49;26.38;;;17.52;;
43327;SDS011;28923;45.412;10.852;2023-02-22T00:42:17;25.48;;;17.15;;
43327;SDS011;28923;45.412;10.852;2023-02-22T00:44:43;26.35;;;17.55;;
43327;SDS011;28923;45.412;10.852;2023-02-22T00:47:10;25.20;;;17.42;;
43327;SDS011;28923;45.412;10.852;2023-02-22T00:49:36;24.42;;;17.20;;
43327;SDS011;28923;45.412;10.852;2023-02-22T00:52:01;23.30;;;17.27;;
43327;SDS011;28923;45.412;10.852;2023-02-22T00:54:27;24.80;;;17.40;;
43327;SDS011;28923;45.412;10.852;2023-02-22T00:56:52;24.95;;;17.63;;
43327;SDS011;28923;45.412;10.852;2023-02-22T00:59:18;25.17;;;18.13;;
43327;SDS011;28923;45.412;10.852;2023-02-22T01:01:43;26.02;;;17.98;;
43327;SDS011;28923;45.412;10.852;2023-02-22T01:04:09;25.30;;;17.42;;
43327;SDS011;28923;45.412;10.852;2023-02-22T01:06:34;24.17;;;17.67;;
43327;SDS011;28923;45.412;10.852;2023-02-22T01:09:00;26.80;;;18.08;;
43327;SDS011;28923;45.412;10.852;2023-02-22T01:11:26;24.10;;;16.98;;
43327;SDS011;28923;45.412;10.852;2023-02-22T01:13:52;28.38;;;18.45;;
43327;SDS011;28923;45.412;10.852;2023-02-22T01:16:20;28.17;;;18.35;;
43327;SDS011;28923;45.412;10.852;2023-02-22T01:18:46;26.27;;;17.17;;
43327;SDS011;28923;45.412;10.852;2023-02-22T01:21:11;25.42;;;18.20;;
43327;SDS011;28923;45.412;10.852;2023-02-22T01:23:36;27.50;;;18.88;;
43327;SDS011;28923;45.412;10.852;2023-02-22T01:26:02;26.75;;;17.55;;
43327;SDS011;28923;45.412;10.852;2023-02-22T01:28:30;27.60;;;18.65;;
43327;SDS011;28923;45.412;10.852;2023-02-22T01:30:55;24.92;;;17.30;;
43327;SDS011;28923;45.412;10.852;2023-02-22T01:33:22;27.08;;;18.08;;
43327;SDS011;28923;45.412;10.852;2023-02-22T01:35:48;25.20;;;17.70;;
43327;SDS011;28923;45.412;10.852;2023-02-22T01:38:15;26.60;;;17.85;;
43327;SDS011;28923;45.412;10.852;2023-02-22T01:40:41;26.67;;;18.27;;
43327;SDS011;28923;45.412;10.852;2023-02-22T01:46:15;28.83;;;17.80;;
43327;SDS011;28923;45.412;10.852;2023-02-22T01:53:28;26.85;;;18.33;;
43327;SDS011;28923;45.412;10.852;2023-02-22T01:55:54;25.85;;;18.25;;
43327;SDS011;28923;45.412;10.852;2023-02-22T01:58:20;27.75;;;18.50;;
43327;SDS011;28923;45.412;10.852;2023-02-22T02:00:46;28.42;;;18.65;;
43327;SDS011;28923;45.412;10.852;2023-02-22T02:03:13;25.73;;;17.95;;
43327;SDS011;28923;45.412;10.852;2023-02-22T02:05:40;25.50;;;18.40;;
43327;SDS011;28923;45.412;10.852;2023-02-22T02:08:11;26.98;;;18.00;;
43327;SDS011;28923;45.412;10.852;2023-02-22T02:10:40;24.00;;;17.50;;
43327;SDS011;28923;45.412;10.852;2023-02-22T02:13:06;24.92;;;17.80;;
43327;SDS011;28923;45.412;10.852;2023-02-22T02:15:32;23.98;;;17.30;;
43327;SDS011;28923;45.412;10.852;2023-02-22T02:18:01;26.10;;;18.38;;
43327;SDS011;28923;45.412;10.852;2023-02-22T02:25:41;28.02;;;17.67;;
43327;SDS011;28923;45.412;10.852;2023-02-22T02:28:20;25.60;;;18.40;;
43327;SDS011;28923;45.412;10.852;2023-02-22T02:33:42;25.77;;;18.63;;
43327;SDS011;28923;45.412;10.852;2023-02-22T02:36:24;25.17;;;17.13;;
43327;SDS011;28923;45.412;10.852;2023-02-22T02:39:04;27.35;;;18.33;;
43327;SDS011;28923;45.412;10.852;2023-02-22T02:41:34;24.77;;;17.55;;
43327;SDS011;28923;45.412;10.852;2023-02-22T02:44:05;24.60;;;17.63;;
43327;SDS011;28923;45.412;10.852;2023-02-22T02:46:49;24.73;;;17.95;;
43327;SDS011;28923;45.412;10.852;2023-02-22T02:49:18;27.38;;;17.83;;
43327;SDS011;28923;45.412;10.852;2023-02-22T02:51:47;26.40;;;18.40;;
43327;SDS011;28923;45.412;10.852;2023-02-22T02:54:15;23.63;;;17.13;;
43327;SDS011;28923;45.412;10.852;2023-02-22T02:56:41;25.20;;;17.45;;
43327;SDS011;28923;45.412;10.852;2023-02-22T03:09:26;26.30;;;17.13;;
43327;SDS011;28923;45.412;10.852;2023-02-22T03:11:58;24.02;;;18.02;;
43327;SDS011;28923;45.412;10.852;2023-02-22T03:14:50;28.88;;;18.30;;
43327;SDS011;28923;45.412;10.852;2023-02-22T03:17:19;26.05;;;17.63;;
43327;SDS011;28923;45.412;10.852;2023-02-22T03:19:48;24.50;;;18.05;;
43327;SDS011;28923;45.412;10.852;2023-02-22T03:22:20;27.80;;;17.98;;
43327;SDS011;28923;45.412;10.852;2023-02-22T03:27:22;25.48;;;17.55;;
43327;SDS011;28923;45.412;10.852;2023-02-22T03:29:51;23.60;;;17.10;;
43327;SDS011;28923;45.412;10.852;2023-02-22T03:32:20;23.45;;;16.90;;
43327;SDS011;28923;45.412;10.852;2023-02-22T03:34:49;24.75;;;17.75;;
43327;SDS011;28923;45.412;10.852;2023-02-22T03:37:19;24.75;;;17.95;;
43327;SDS011;28923;45.412;10.852;2023-02-22T03:39:46;24.85;;;17.25;;
43327;SDS011;28923;45.412;10.852;2023-02-22T03:42:16;23.48;;;17.17;;
43327;SDS011;28923;45.412;10.852;2023-02-22T03:44:43;22.38;;;16.95;;
43327;SDS011;28923;45.412;10.852;2023-02-22T03:47:13;27.40;;;17.92;;
43327;SDS011;28923;45.412;10.852;2023-02-22T03:49:54;25.00;;;17.90;;
43327;SDS011;28923;45.412;10.852;2023-02-22T03:52:21;25.33;;;17.20;;
43327;SDS011;28923;45.412;10.852;2023-02-22T03:54:49;24.83;;;17.38;;
43327;SDS011;28923;45.412;10.852;2023-02-22T03:57:27;23.77;;;17.48;;
43327;SDS011;28923;45.412;10.852;2023-02-22T04:00:03;27.73;;;17.40;;
43327;SDS011;28923;45.412;10.852;2023-02-22T04:02:38;25.42;;;17.10;;
43327;SDS011;28923;45.412;10.852;2023-02-22T04:05:03;27.60;;;17.55;;
43327;SDS011;28923;45.412;10.852;2023-02-22T04:07:29;24.70;;;16.90;;
43327;SDS011;28923;45.412;10.852;2023-02-22T04:09:55;22.52;;;16.50;;
43327;SDS011;28923;45.412;10.852;2023-02-22T04:12:21;23.15;;;17.52;;
43327;SDS011;28923;45.412;10.852;2023-02-22T04:14:54;25.63;;;17.35;;
43327;SDS011;28923;45.412;10.852;2023-02-22T04:17:20;26.42;;;17.75;;
43327;SDS011;28923;45.412;10.852;2023-02-22T04:19:46;23.92;;;17.35;;
43327;SDS011;28923;45.412;10.852;2023-02-22T04:22:13;25.60;;;16.92;;
43327;SDS011;28923;45.412;10.852;2023-02-22T04:24:38;23.63;;;16.42;;
43327;SDS011;28923;45.412;10.852;2023-02-22T04:27:04;24.90;;;17.52;;
43327;SDS011;28923;45.412;10.852;2023-02-22T04:29:33;27.42;;;17.38;;
43327;SDS011;28923;45.412;10.852;2023-02-22T04:32:00;23.70;;;17.23;;
43327;SDS011;28923;45.412;10.852;2023-02-22T04:34:25;25.70;;;17.20;;
43327;SDS011;28923;45.412;10.852;2023-02-22T04:36:51;24.52;;;17.30;;
43327;SDS011;28923;45.412;10.852;2023-02-22T04:39:17;29.40;;;17.40;;
43327;SDS011;28923;45.412;10.852;2023-02-22T04:41:43;25.23;;;18.00;;
43327;SDS011;28923;45.412;10.852;2023-02-22T04:44:10;25.73;;;17.10;;
43327;SDS011;28923;45.412;10.852;2023-02-22T04:46:35;24.35;;;17.00;;
43327;SDS011;28923;45.412;10.852;2023-02-22T04:49:01;24.88;;;17.25;;
43327;SDS011;28923;45.412;10.852;2023-02-22T04:51:30;26.05;;;17.30;;
43327;SDS011;28923;45.412;10.852;2023-02-22T04:54:01;24.13;;;16.85;;
43327;SDS011;28923;45.412;10.852;2023-02-22T04:56:30;24.90;;;17.42;;
43327;SDS011;28923;45.412;10.852;2023-02-22T04:58:55;23.00;;;16.33;;
43327;SDS011;28923;45.412;10.852;2023-02-22T05:01:21;29.00;;;18.35;;
43327;SDS011;28923;45.412;10.852;2023-02-22T05:03:48;25.27;;;17.63;;
43327;SDS011;28923;45.412;10.852;2023-02-22T05:06:14;30.02;;;17.75;;
43327;SDS011;28923;45.412;10.852;2023-02-22T05:08:40;27.33;;;17.38;;
43327;SDS011;28923;45.412;10.852;2023-02-22T05:11:06;26.73;;;18.00;;
43327;SDS011;28923;45.412;10.852;2023-02-22T05:13:31;25.23;;;17.08;;
43327;SDS011;28923;45.412;10.852;2023-02-22T05:15:56;27.15;;;17.70;;
43327;SDS011;28923;45.412;10.852;2023-02-22T05:18:22;27.25;;;18.08;;
43327;SDS011;28923;45.412;10.852;2023-02-22T05:20:48;27.15;;;17.35;;
43327;SDS011;28923;45.412;10.852;2023-02-22T05:23:14;28.08;;;17.13;;
43327;SDS011;28923;45.412;10.852;2023-02-22T05:25:39;28.98;;;16.77;;
43327;SDS011;28923;45.412;10.852;2023-02-22T05:28:12;28.50;;;17.88;;
43327;SDS011;28923;45.412;10.852;2023-02-22T05:30:38;25.42;;;16.85;;
43327;SDS011;28923;45.412;10.852;2023-02-22T05:33:07;28.98;;;17.65;;
43327;SDS011;28923;45.412;10.852;2023-02-22T05:35:33;25.17;;;17.00;;
43327;SDS011;28923;45.412;10.852;2023-02-22T05:37:59;26.77;;;17.80;;
43327;SDS011;28923;45.412;10.852;2023-02-22T05:40:27;28.05;;;16.85;;
43327;SDS011;28923;45.412;10.852;2023-02-22T05:42:53;28.10;;;18.40;;
43327;SDS011;28923;45.412;10.852;2023-02-22T05:45:21;24.75;;;16.48;;
43327;SDS011;28923;45.412;10.852;2023-02-22T05:47:47;30.33;;;18.00;;
43327;SDS011;28923;45.412;10.852;2023-02-22T05:50:13;30.08;;;17.88;;
43327;SDS011;28923;45.412;10.852;2023-02-22T05:52:39;33.13;;;18.25;;
43327;SDS011;28923;45.412;10.852;2023-02-22T05:55:06;27.65;;;17.45;;
43327;SDS011;28923;45.412;10.852;2023-02-22T05:57:32;33.28;;;18.35;;
43327;SDS011;28923;45.412;10.852;2023-02-22T05:59:57;25.40;;;17.35;;
43327;SDS011;28923;45.412;10.852;2023-02-22T06:02:22;35.20;;;18.17;;
43327;SDS011;28923;45.412;10.852;2023-02-22T06:04:48;27.77;;;17.17;;
43327;SDS011;28923;45.412;10.852;2023-02-22T06:07:14;31.50;;;17.77;;
43327;SDS011;28923;45.412;10.852;2023-02-22T06:09:39;29.10;;;18.42;;
43327;SDS011;28923;45.412;10.852;2023-02-22T06:12:06;31.92;;;18.65;;
43327;SDS011;28923;45.412;10.852;2023-02-22T06:14:32;31.50;;;18.73;;
43327;SDS011;28923;45.412;10.852;2023-02-22T06:16:58;29.17;;;18.80;;
43327;SDS011;28923;45.412;10.852;2023-02-22T06:19:25;28.95;;;17.23;;
43327;SDS011;28923;45.412;10.852;2023-02-22T06:21:54;29.33;;;18.00;;
43327;SDS011;28923;45.412;10.852;2023-02-22T06:24:20;30.05;;;18.77;;
43327;SDS011;28923;45.412;10.852;2023-02-22T06:26:50;29.45;;;17.80;;
43327;SDS011;28923;45.412;10.852;2023-02-22T06:29:18;31.70;;;18.73;;
43327;SDS011;28923;45.412;10.852;2023-02-22T06:31:44;28.08;;;18.73;;
43327;SDS011;28923;45.412;10.852;2023-02-22T06:34:09;29.83;;;18.65;;
43327;SDS011;28923;45.412;10.852;2023-02-22T06:36:35;30.75;;;18.65;;
43327;SDS011;28923;45.412;10.852;2023-02-22T06:39:01;30.02;;;18.10;;
43327;SDS011;28923;45.412;10.852;2023-02-22T06:41:27;31.95;;;19.63;;
43327;SDS011;28923;45.412;10.852;2023-02-22T06:43:53;30.60;;;18.67;;
43327;SDS011;28923;45.412;10.852;2023-02-22T06:46:18;28.55;;;19.02;;
43327;SDS011;28923;45.412;10.852;2023-02-22T06:48:45;28.40;;;19.60;;
43327;SDS011;28923;45.412;10.852;2023-02-22T06:51:11;28.98;;;19.63;;
43327;SDS011;28923;45.412;10.852;2023-02-22T06:53:36;27.48;;;18.52;;
43327;SDS011;28923;45.412;10.852;2023-02-22T06:56:02;30.30;;;18.15;;
43327;SDS011;28923;45.412;10.852;2023-02-22T06:58:28;28.38;;;18.35;;
43327;SDS011;28923;45.412;10.852;2023-02-22T07:00:54;29.45;;;19.58;;
43327;SDS011;28923;45.412;10.852;2023-02-22T07:03:20;27.55;;;18.98;;
43327;SDS011;28923;45.412;10.852;2023-02-22T07:05:46;27.42;;;18.15;;
43327;SDS011;28923;45.412;10.852;2023-02-22T07:08:11;26.88;;;18.38;;
43327;SDS011;28923;45.412;10.852;2023-02-22T07:10:37;28.95;;;19.73;;
43327;SDS011;28923;45.412;10.852;2023-02-22T07:13:04;28.60;;;18.80;;
43327;SDS011;28923;45.412;10.852;2023-02-22T07:15:31;26.23;;;19.23;;
43327;SDS011;28923;45.412;10.852;2023-02-22T07:17:57;27.77;;;18.48;;
43327;SDS011;28923;45.412;10.852;2023-02-22T07:20:23;28.75;;;19.13;;
43327;SDS011;28923;45.412;10.852;2023-02-22T07:22:49;26.73;;;18.73;;
43327;SDS011;28923;45.412;10.852;2023-02-22T07:25:15;31.52;;;20.45;;
43327;SDS011;28923;45.412;10.852;2023-02-22T07:27:41;29.80;;;19.60;;
43327;SDS011;28923;45.412;10.852;2023-02-22T07:30:09;29.42;;;18.45;;
43327;SDS011;28923;45.412;10.852;2023-02-22T07:35:05;27.15;;;18.35;;
43327;SDS011;28923;45.412;10.852;2023-02-22T07:37:31;29.88;;;19.83;;
43327;SDS011;28923;45.412;10.852;2023-02-22T07:39:57;27.65;;;18.73;;
43327;SDS011;28923;45.412;10.852;2023-02-22T07:42:23;30.52;;;19.25;;
43327;SDS011;28923;45.412;10.852;2023-02-22T07:44:48;28.98;;;19.08;;
43327;SDS011;28923;45.412;10.852;2023-02-22T07:47:14;29.08;;;19.15;;
43327;SDS011;28923;45.412;10.852;2023-02-22T07:49:40;29.10;;;19.55;;
43327;SDS011;28923;45.412;10.852;2023-02-22T07:52:05;26.77;;;18.77;;
43327;SDS011;28923;45.412;10.852;2023-02-22T07:54:32;27.15;;;18.52;;
43327;SDS011;28923;45.412;10.852;2023-02-22T07:56:57;28.75;;;18.70;;
43327;SDS011;28923;45.412;10.852;2023-02-22T07:59:23;26.92;;;18.35;;
43327;SDS011;28923;45.412;10.852;2023-02-22T08:01:49;27.90;;;18.48;;
43327;SDS011;28923;45.412;10.852;2023-02-22T08:04:14;27.83;;;19.45;;
43327;SDS011;28923;45.412;10.852;2023-02-22T08:06:40;27.52;;;18.75;;
43327;SDS011;28923;45.412;10.852;2023-02-22T08:09:05;26.20;;;18.67;;
43327;SDS011;28923;45.412;10.852;2023-02-22T08:11:31;27.77;;;19.20;;
43327;SDS011;28923;45.412;10.852;2023-02-22T08:13:57;27.70;;;18.40;;
43327;SDS011;28923;45.412;10.852;2023-02-22T08:16:24;28.20;;;19.67;;
43327;SDS011;28923;45.412;10.852;2023-02-22T08:18:49;27.40;;;18.23;;
43327;SDS011;28923;45.412;10.852;2023-02-22T08:21:15;31.83;;;19.63;;
43327;SDS011;28923;45.412;10.852;2023-02-22T08:23:41;28.73;;;18.85;;
43327;SDS011;28923;45.412;10.852;2023-02-22T08:26:07;29.10;;;19.48;;
43327;SDS011;28923;45.412;10.852;2023-02-22T08:28:34;27.23;;;18.85;;
43327;SDS011;28923;45.412;10.852;2023-02-22T08:30:59;28.73;;;18.77;;
43327;SDS011;28923;45.412;10.852;2023-02-22T08:33:25;27.67;;;18.92;;
43327;SDS011;28923;45.412;10.852;2023-02-22T08:35:50;29.88;;;19.17;;
43327;SDS011;28923;45.412;10.852;2023-02-22T08:40:46;27.33;;;18.95;;
43327;SDS011;28923;45.412;10.852;2023-02-22T08:43:11;33.03;;;19.33;;
43327;SDS011;28923;45.412;10.852;2023-02-22T08:45:38;27.85;;;18.80;;
43327;SDS011;28923;45.412;10.852;2023-02-22T08:48:03;26.83;;;18.48;;
43327;SDS011;28923;45.412;10.852;2023-02-22T08:50:29;29.52;;;19.45;;
43327;SDS011;28923;45.412;10.852;2023-02-22T08:52:56;28.23;;;18.75;;
43327;SDS011;28923;45.412;10.852;2023-02-22T08:55:24;31.50;;;18.67;;
43327;SDS011;28923;45.412;10.852;2023-02-22T08:57:50;26.65;;;18.13;;
43327;SDS011;28923;45.412;10.852;2023-02-22T09:00:16;27.83;;;18.70;;
43327;SDS011;28923;45.412;10.852;2023-02-22T09:02:42;30.33;;;18.85;;
43327;SDS011;28923;45.412;10.852;2023-02-22T09:05:08;29.02;;;17.88;;
43327;SDS011;28923;45.412;10.852;2023-02-22T09:07:33;26.23;;;18.15;;
43327;SDS011;28923;45.412;10.852;2023-02-22T09:09:58;27.13;;;17.98;;
43327;SDS011;28923;45.412;10.852;2023-02-22T09:12:24;29.38;;;17.95;;
43327;SDS011;28923;45.412;10.852;2023-02-22T09:14:49;27.35;;;17.52;;
43327;SDS011;28923;45.412;10.852;2023-02-22T09:17:14;27.75;;;18.23;;
43327;SDS011;28923;45.412;10.852;2023-02-22T09:19:40;31.00;;;17.92;;
43327;SDS011;28923;45.412;10.852;2023-02-22T09:22:05;28.80;;;17.77;;
43327;SDS011;28923;45.412;10.852;2023-02-22T09:24:31;25.70;;;17.88;;
43327;SDS011;28923;45.412;10.852;2023-02-22T09:26:56;26.83;;;18.25;;
43327;SDS011;28923;45.412;10.852;2023-02-22T09:29:24;26.60;;;17.20;;
43327;SDS011;28923;45.412;10.852;2023-02-22T09:31:51;31.25;;;17.67;;
43327;SDS011;28923;45.412;10.852;2023-02-22T09:34:17;28.13;;;17.75;;
43327;SDS011;28923;45.412;10.852;2023-02-22T09:36:44;26.30;;;16.75;;
43327;SDS011;28923;45.412;10.852;2023-02-22T09:39:13;30.48;;;18.60;;
43327;SDS011;28923;45.412;10.852;2023-02-22T09:44:15;26.27;;;17.45;;
43327;SDS011;28923;45.412;10.852;2023-02-22T09:46:42;24.48;;;17.15;;
43327;SDS011;28923;45.412;10.852;2023-02-22T09:51:47;27.65;;;16.80;;
43327;SDS011;28923;45.412;10.852;2023-02-22T09:54:23;26.23;;;16.77;;
43327;SDS011;28923;45.412;10.852;2023-02-22T09:56:51;27.52;;;16.88;;
43327;SDS011;28923;45.412;10.852;2023-02-22T09:59:21;30.45;;;17.08;;
43327;SDS011;28923;45.412;10.852;2023-02-22T10:01:47;30.88;;;17.10;;
43327;SDS011;28923;45.412;10.852;2023-02-22T10:04:16;26.42;;;16.58;;
43327;SDS011;28923;45.412;10.852;2023-02-22T10:06:49;25.77;;;16.25;;
43327;SDS011;28923;45.412;10.852;2023-02-22T10:09:16;27.70;;;15.35;;
43327;SDS011;28923;45.412;10.852;2023-02-22T10:16:52;24.65;;;16.15;;
43327;SDS011;28923;45.412;10.852;2023-02-22T10:27:12;24.70;;;15.18;;
43327;SDS011;28923;45.412;10.852;2023-02-22T10:29:43;23.60;;;15.40;;
43327;SDS011;28923;45.412;10.852;2023-02-22T10:32:13;26.52;;;14.93;;
43327;SDS011;28923;45.412;10.852;2023-02-22T10:34:40;27.33;;;15.88;;
43327;SDS011;28923;45.412;10.852;2023-02-22T10:37:24;24.42;;;15.63;;
43327;SDS011;28923;45.412;10.852;2023-02-22T10:39:50;22.98;;;15.95;;
43327;SDS011;28923;45.412;10.852;2023-02-22T10:42:18;23.95;;;14.85;;
43327;SDS011;28923;45.412;10.852;2023-02-22T10:44:46;24.02;;;15.45;;
43327;SDS011;28923;45.412;10.852;2023-02-22T10:47:12;25.80;;;14.63;;
43327;SDS011;28923;45.412;10.852;2023-02-22T10:49:40;22.25;;;14.23;;
43327;SDS011;28923;45.412;10.852;2023-02-22T10:52:16;24.00;;;15.75;;
43327;SDS011;28923;45.412;10.852;2023-02-22T10:54:44;24.02;;;15.27;;
43327;SDS011;28923;45.412;10.852;2023-02-22T10:57:10;25.58;;;15.15;;
43327;SDS011;28923;45.412;10.852;2023-02-22T10:59:38;23.35;;;15.13;;
43327;SDS011;28923;45.412;10.852;2023-02-22T11:02:08;22.92;;;14.73;;
43327;SDS011;28923;45.412;10.852;2023-02-22T11:04:46;24.98;;;15.25;;
43327;SDS011;28923;45.412;10.852;2023-02-22T11:09:47;25.55;;;14.52;;
43327;SDS011;28923;45.412;10.852;2023-02-22T11:12:25;24.25;;;14.43;;
43327;SDS011;28923;45.412;10.852;2023-02-22T11:14:51;22.48;;;14.10;;
43327;SDS011;28923;45.412;10.852;2023-02-22T11:17:27;22.25;;;14.65;;
43327;SDS011;28923;45.412;10.852;2023-02-22T11:19:54;22.13;;;14.60;;
43327;SDS011;28923;45.412;10.852;2023-02-22T11:22:36;23.80;;;14.35;;
43327;SDS011;28923;45.412;10.852;2023-02-22T11:25:04;22.85;;;13.98;;
43327;SDS011;28923;45.412;10.852;2023-02-22T11:30:05;24.48;;;14.02;;
43327;SDS011;28923;45.412;10.852;2023-02-22T11:32:32;24.50;;;14.07;;
43327;SDS011;28923;45.412;10.852;2023-02-22T11:35:15;23.77;;;14.55;;
43327;SDS011;28923;45.412;10.852;2023-02-22T11:37:41;25.33;;;13.93;;
43327;SDS011;28923;45.412;10.852;2023-02-22T11:42:32;23.30;;;14.27;;
43327;SDS011;28923;45.412;10.852;2023-02-22T11:45:07;22.60;;;13.93;;
43327;SDS011;28923;45.412;10.852;2023-02-22T11:47:34;19.70;;;14.05;;
43327;SDS011;28923;45.412;10.852;2023-02-22T11:49:59;23.00;;;14.57;;
43327;SDS011;28923;45.412;10.852;2023-02-22T11:52:35;22.27;;;14.07;;
43327;SDS011;28923;45.412;10.852;2023-02-22T12:05:37;22.92;;;14.68;;
43327;SDS011;28923;45.412;10.852;2023-02-22T12:18:40;25.98;;;15.98;;
43327;SDS011;28923;45.412;10.852;2023-02-22T12:21:13;25.25;;;15.05;;
43327;SDS011;28923;45.412;10.852;2023-02-22T12:26:11;25.00;;;15.77;;
43327;SDS011;28923;45.412;10.852;2023-02-22T12:28:39;25.13;;;15.82;;
43327;SDS011;28923;45.412;10.852;2023-02-22T12:31:20;22.02;;;14.95;;
43327;SDS011;28923;45.412;10.852;2023-02-22T12:36:34;22.25;;;15.30;;
43327;SDS011;28923;45.412;10.852;2023-02-22T12:39:02;25.95;;;15.50;;
43327;SDS011;28923;45.412;10.852;2023-02-22T12:41:39;24.38;;;15.13;;
43327;SDS011;28923;45.412;10.852;2023-02-22T12:51:38;25.15;;;15.27;;
43327;SDS011;28923;45.412;10.852;2023-02-22T12:56:41;25.40;;;15.07;;
43327;SDS011;28923;45.412;10.852;2023-02-22T12:59:11;27.75;;;16.45;;
43327;SDS011;28923;45.412;10.852;2023-02-22T13:01:39;23.50;;;15.15;;
43327;SDS011;28923;45.412;10.852;2023-02-22T13:04:06;23.25;;;15.35;;
43327;SDS011;28923;45.412;10.852;2023-02-22T13:09:12;24.67;;;15.05;;
43327;SDS011;28923;45.412;10.852;2023-02-22T13:22:43;21.88;;;15.52;;
43327;SDS011;28923;45.412;10.852;2023-02-22T13:25:13;23.50;;;15.60;;
43327;SDS011;28923;45.412;10.852;2023-02-22T13:27:41;22.92;;;14.45;;
43327;SDS011;28923;45.412;10.852;2023-02-22T13:35:47;24.38;;;16.05;;
43327;SDS011;28923;45.412;10.852;2023-02-22T13:38:41;24.05;;;15.45;;
43327;SDS011;28923;45.412;10.852;2023-02-22T13:53:55;22.70;;;15.30;;
43327;SDS011;28923;45.412;10.852;2023-02-22T13:56:23;27.60;;;15.55;;
43327;SDS011;28923;45.412;10.852;2023-02-22T13:58:50;23.05;;;15.27;;
43327;SDS011;28923;45.412;10.852;2023-02-22T14:07:01;23.05;;;15.48;;
43327;SDS011;28923;45.412;10.852;2023-02-22T14:17:38;21.90;;;15.70;;
43327;SDS011;28923;45.412;10.852;2023-02-22T14:20:27;22.92;;;14.77;;
43327;SDS011;28923;45.412;10.852;2023-02-22T14:22:57;22.98;;;14.82;;
43327;SDS011;28923;45.412;10.852;2023-02-22T14:25:41;22.25;;;15.45;;
43327;SDS011;28923;45.412;10.852;2023-02-22T14:31:02;20.83;;;14.85;;
43327;SDS011;28923;45.412;10.852;2023-02-22T14:36:25;21.42;;;14.93;;
43327;SDS011;28923;45.412;10.852;2023-02-22T14:38:51;24.35;;;15.93;;
43327;SDS011;28923;45.412;10.852;2023-02-22T14:41:20;22.15;;;15.43;;
43327;SDS011;28923;45.412;10.852;2023-02-22T14:43:48;23.08;;;15.93;;
43327;SDS011;28923;45.412;10.852;2023-02-22T14:46:16;22.50;;;15.45;;
43327;SDS011;28923;45.412;10.852;2023-02-22T14:48:44;23.35;;;15.40;;
43327;SDS011;28923;45.412;10.852;2023-02-22T14:51:20;24.05;;;15.70;;
43327;SDS011;28923;45.412;10.852;2023-02-22T14:54:09;21.23;;;14.82;;
43327;SDS011;28923;45.412;10.852;2023-02-22T14:56:35;19.20;;;14.40;;
43327;SDS011;28923;45.412;10.852;2023-02-22T14:59:16;24.02;;;15.13;;
43327;SDS011;28923;45.412;10.852;2023-02-22T15:01:42;23.85;;;15.15;;
43327;SDS011;28923;45.412;10.852;2023-02-22T15:04:17;24.38;;;15.93;;
43327;SDS011;28923;45.412;10.852;2023-02-22T15:06:43;22.80;;;15.52;;
43327;SDS011;28923;45.412;10.852;2023-02-22T15:12:12;24.05;;;15.30;;
43327;SDS011;28923;45.412;10.852;2023-02-22T15:14:39;23.55;;;16.40;;
43327;SDS011;28923;45.412;10.852;2023-02-22T15:17:08;23.13;;;14.73;;
43327;SDS011;28923;45.412;10.852;2023-02-22T15:19:37;22.70;;;15.52;;
43327;SDS011;28923;45.412;10.852;2023-02-22T15:22:04;20.92;;;14.82;;
43327;SDS011;28923;45.412;10.852;2023-02-22T15:24:33;21.45;;;14.80;;
43327;SDS011;28923;45.412;10.852;2023-02-22T15:27:06;21.02;;;14.52;;
43327;SDS011;28923;45.412;10.852;2023-02-22T15:29:35;21.10;;;14.15;;
43327;SDS011;28923;45.412;10.852;2023-02-22T15:32:01;19.83;;;14.18;;
43327;SDS011;28923;45.412;10.852;2023-02-22T15:34:28;22.55;;;14.85;;
43327;SDS011;28923;45.412;10.852;2023-02-22T15:36:55;21.75;;;15.10;;
43327;SDS011;28923;45.412;10.852;2023-02-22T15:41:59;20.50;;;14.25;;
43327;SDS011;28923;45.412;10.852;2023-02-22T15:44:25;22.23;;;15.23;;
43327;SDS011;28923;45.412;10.852;2023-02-22T15:46:50;21.88;;;14.75;;
43327;SDS011;28923;45.412;10.852;2023-02-22T15:49:20;21.77;;;14.88;;
43327;SDS011;28923;45.412;10.852;2023-02-22T15:51:47;21.00;;;15.10;;
43327;SDS011;28923;45.412;10.852;2023-02-22T15:54:15;24.10;;;15.82;;
43327;SDS011;28923;45.412;10.852;2023-02-22T15:56:46;22.65;;;15.13;;
43327;SDS011;28923;45.412;10.852;2023-02-22T15:59:15;19.77;;;14.32;;
43327;SDS011;28923;45.412;10.852;2023-02-22T16:01:45;22.75;;;15.13;;
43327;SDS011;28923;45.412;10.852;2023-02-22T16:04:15;20.85;;;15.02;;
43327;SDS011;28923;45.412;10.852;2023-02-22T16:06:41;21.98;;;14.43;;
43327;SDS011;28923;45.412;10.852;2023-02-22T16:09:07;19.20;;;13.73;;
43327;SDS011;28923;45.412;10.852;2023-02-22T16:11:37;22.40;;;14.30;;
43327;SDS011;28923;45.412;10.852;2023-02-22T16:14:05;21.70;;;14.90;;
43327;SDS011;28923;45.412;10.852;2023-02-22T16:16:34;21.52;;;14.73;;
43327;SDS011;28923;45.412;10.852;2023-02-22T16:19:23;23.73;;;14.35;;
43327;SDS011;28923;45.412;10.852;2023-02-22T16:21:54;23.27;;;14.60;;
43327;SDS011;28923;45.412;10.852;2023-02-22T16:24:29;23.98;;;14.50;;
43327;SDS011;28923;45.412;10.852;2023-02-22T16:29:40;26.70;;;15.18;;
43327;SDS011;28923;45.412;10.852;2023-02-22T16:32:05;23.08;;;15.20;;
43327;SDS011;28923;45.412;10.852;2023-02-22T16:34:31;24.00;;;15.00;;
43327;SDS011;28923;45.412;10.852;2023-02-22T16:36:56;21.70;;;14.73;;
43327;SDS011;28923;45.412;10.852;2023-02-22T16:39:28;23.65;;;14.95;;
43327;SDS011;28923;45.412;10.852;2023-02-22T16:41:55;21.05;;;14.50;;
43327;SDS011;28923;45.412;10.852;2023-02-22T16:44:21;22.65;;;14.65;;
43327;SDS011;28923;45.412;10.852;2023-02-22T16:46:50;22.10;;;14.18;;
43327;SDS011;28923;45.412;10.852;2023-02-22T16:49:15;23.45;;;14.80;;